Time;durP1;ratioP1;P1;durP2;ratioP2;P2;SDS_P1;SDS_P2;PMS_P1;PMS_P2;Temp;Humidity;BMP_temperature;BMP_pressure;BME280_temperature;BME280_humidity;BME280_pressure;Samples;Min_cycle;Max_cycle;Signal;HPM_P1;HPM_P2
2022/10/16 03:01:54;;;;;;;0.60;0.50;;;17.70;84.80;;;;;;5482721;23;20501;-75
2022/10/16 03:04:21;;;;;;;0.50;0.50;;;17.70;84.90;;;;;;4975603;28;20500;-75
2022/10/16 03:06:48;;;;;;;0.70;0.60;;;17.70;84.90;;;;;;4975593;28;20449;-76
2022/10/16 03:09:15;;;;;;;0.80;0.60;;;17.80;84.90;;;;;;4975536;28;20469;-76
2022/10/16 03:11:41;;;;;;;0.60;0.50;;;17.80;84.80;;;;;;4975334;28;20490;-76
2022/10/16 03:14:08;;;;;;;0.60;0.60;;;17.70;84.60;;;;;;4975398;28;20446;-76
2022/10/16 03:16:35;;;;;;;1.13;0.70;;;17.70;84.90;;;;;;4976201;28;20921;-76
2022/10/16 03:19:03;;;;;;;0.83;0.70;;;17.80;84.90;;;;;;4975330;28;20450;-75
2022/10/16 03:21:30;;;;;;;0.70;0.60;;;17.80;84.80;;;;;;4975220;28;20549;-76
2022/10/16 03:23:57;;;;;;;0.80;0.60;;;17.80;84.70;;;;;;4975257;28;20454;-75
2022/10/16 03:26:23;;;;;;;1.00;0.70;;;17.80;84.60;;;;;;4975451;28;20447;-75
2022/10/16 03:28:50;;;;;;;0.60;0.60;;;17.80;84.60;;;;;;4975165;28;20453;-76
2022/10/16 03:31:17;;;;;;;0.60;0.50;;;17.80;84.50;;;;;;4974999;28;20513;-75
2022/10/16 03:33:43;;;;;;;0.67;0.50;;;17.80;84.60;;;;;;4974734;28;20450;-76
2022/10/16 03:36:11;;;;;;;0.70;0.70;;;17.80;84.60;;;;;;4975069;28;20794;-75
2022/10/16 03:38:38;;;;;;;1.00;0.60;;;17.70;84.80;;;;;;4975002;28;20446;-75
2022/10/16 03:41:07;;;;;;;0.60;0.53;;;17.70;84.80;;;;;;4974599;28;20997;-75
2022/10/16 03:43:34;;;;;;;1.37;0.70;;;17.70;84.70;;;;;;4974643;28;20969;-75
2022/10/16 03:46:01;;;;;;;0.60;0.60;;;17.60;84.90;;;;;;4974910;28;20450;-76
2022/10/16 03:49:13;;;;;;;0.60;0.60;;;17.70;84.90;;;;;;4974614;28;20972;-76
2022/10/16 03:51:41;;;;;;;0.70;0.60;;;17.60;84.90;;;;;;4974668;28;20492;-75
2022/10/16 03:54:08;;;;;;;0.70;0.60;;;17.60;85.00;;;;;;4974768;28;20862;-75
2022/10/16 03:56:34;;;;;;;0.67;0.53;;;17.50;85.00;;;;;;4974980;28;20446;-75
2022/10/16 03:59:01;;;;;;;0.97;0.60;;;17.60;85.00;;;;;;4974687;28;20881;-75
2022/10/16 04:01:28;;;;;;;0.60;0.50;;;17.50;85.10;;;;;;4974432;28;20479;-75
2022/10/16 04:03:54;;;;;;;0.60;0.50;;;17.50;85.10;;;;;;4974673;28;20451;-76
2022/10/16 04:06:21;;;;;;;0.97;0.60;;;17.50;85.20;;;;;;4974354;28;20457;-75
2022/10/16 04:08:50;;;;;;;0.70;0.60;;;17.50;85.20;;;;;;4974625;28;20450;-75
2022/10/16 04:11:16;;;;;;;0.77;0.60;;;17.40;85.30;;;;;;4974170;28;21023;-75
2022/10/16 04:13:43;;;;;;;1.10;0.60;;;17.50;85.40;;;;;;4974833;28;20474;-76
2022/10/16 04:16:10;;;;;;;0.60;0.60;;;17.50;85.30;;;;;;4974571;28;20458;-76
2022/10/16 04:18:37;;;;;;;0.83;0.70;;;17.50;85.40;;;;;;4974498;28;20462;-76
2022/10/16 04:21:04;;;;;;;0.70;0.50;;;17.50;85.30;;;;;;4974126;28;20470;-75
2022/10/16 04:23:31;;;;;;;0.60;0.60;;;17.50;85.30;;;;;;4974502;28;20473;-76
2022/10/16 04:26:00;;;;;;;0.70;0.60;;;17.50;85.20;;;;;;4974148;28;20454;-75
2022/10/16 04:28:27;;;;;;;0.60;0.50;;;17.40;85.40;;;;;;4977227;28;20949;-76
2022/10/16 04:30:53;;;;;;;0.80;0.67;;;17.40;85.50;;;;;;4978245;28;20497;-76
2022/10/16 04:33:20;;;;;;;0.60;0.60;;;17.40;85.40;;;;;;4978380;28;20534;-76
2022/10/16 04:35:47;;;;;;;0.60;0.60;;;17.40;85.40;;;;;;4978130;28;20976;-75
2022/10/16 04:38:13;;;;;;;0.70;0.70;;;17.50;85.40;;;;;;4978260;28;20454;-75
2022/10/16 04:40:42;;;;;;;0.70;0.70;;;17.50;85.30;;;;;;4978447;28;20470;-75
2022/10/16 04:43:10;;;;;;;0.60;0.57;;;17.50;85.30;;;;;;4978225;28;20445;-75
2022/10/16 04:45:37;;;;;;;0.70;0.50;;;17.50;85.20;;;;;;4978116;28;20488;-75
2022/10/16 04:48:04;;;;;;;0.60;0.50;;;17.50;85.20;;;;;;4978104;28;20450;-75
2022/10/16 04:50:30;;;;;;;0.60;0.53;;;17.50;85.20;;;;;;4977917;28;20842;-75
2022/10/16 04:52:57;;;;;;;0.70;0.70;;;17.50;85.10;;;;;;4977769;28;20453;-75
2022/10/16 04:55:24;;;;;;;0.70;0.50;;;17.50;85.10;;;;;;4978041;28;20458;-75
2022/10/16 04:57:50;;;;;;;0.80;0.60;;;17.50;85.10;;;;;;4978255;28;20446;-75
2022/10/16 05:00:18;;;;;;;1.30;0.70;;;17.50;85.10;;;;;;4977558;28;20858;-75
2022/10/16 05:02:45;;;;;;;0.70;0.60;;;17.60;85.00;;;;;;4977610;28;20478;-76
2022/10/16 05:05:12;;;;;;;0.70;0.60;;;17.50;85.00;;;;;;4977501;28;20996;-75
2022/10/16 05:14:22;;;;;;;0.60;0.60;;;17.50;85.30;;;;;;4977460;28;20406;-75
2022/10/16 05:16:51;;;;;;;0.60;0.60;;;17.40;85.30;;;;;;4977650;28;20887;-75
2022/10/16 05:32:51;;;;;;;0.73;0.73;;;17.40;85.00;;;;;;4977296;28;20434;-75
2022/10/16 05:35:19;;;;;;;1.20;0.67;;;17.40;84.90;;;;;;4977325;28;20445;-77
2022/10/16 05:37:46;;;;;;;0.60;0.60;;;17.40;84.90;;;;;;4976851;28;20460;-77
2022/10/16 05:40:14;;;;;;;0.60;0.50;;;17.40;84.80;;;;;;4977294;28;20438;-77
2022/10/16 05:46:05;;;;;;;0.70;0.60;;;17.40;85.00;;;;;;4977649;28;20463;-76
2022/10/16 05:48:34;;;;;;;0.60;0.60;;;17.40;84.80;;;;;;4976837;28;20510;-77
2022/10/16 05:51:03;;;;;;;0.80;0.63;;;17.40;84.80;;;;;;4976898;28;20486;-77
2022/10/16 05:53:31;;;;;;;2.00;0.80;;;17.30;85.00;;;;;;4977046;28;20466;-77
2022/10/16 06:08:46;;;;;;;0.93;0.60;;;17.40;85.50;;;;;;4916879;29;20411;-77
2022/10/16 06:11:16;;;;;;;0.70;0.70;;;17.40;85.40;;;;;;4916753;29;21103;-76
2022/10/16 06:13:42;;;;;;;0.93;0.70;;;17.40;85.40;;;;;;4955712;28;20459;-77
2022/10/16 06:16:10;;;;;;;1.60;0.90;;;17.40;85.40;;;;;;4977059;28;20454;-77
2022/10/16 06:18:37;;;;;;;0.80;0.80;;;17.50;85.30;;;;;;4976495;28;20504;-78
2022/10/16 06:21:09;;;;;;;0.90;0.80;;;17.60;85.30;;;;;;4976111;28;20977;-77
2022/10/16 06:23:36;;;;;;;0.60;0.60;;;17.60;85.20;;;;;;4976521;28;20521;-78
2022/10/16 06:26:08;;;;;;;0.80;0.70;;;17.90;85.40;;;;;;4976441;28;20461;-78
2022/10/16 06:28:35;;;;;;;0.60;0.53;;;18.10;84.20;;;;;;4976525;28;20452;-76
2022/10/16 06:31:02;;;;;;;0.70;0.60;;;18.20;83.30;;;;;;4976064;28;20491;-76
2022/10/16 06:33:29;;;;;;;0.70;0.60;;;18.30;83.10;;;;;;4976143;28;20446;-76
2022/10/16 06:36:01;;;;;;;0.70;0.60;;;18.30;82.80;;;;;;4976147;28;20480;-76
2022/10/16 06:44:26;;;;;;;0.60;0.50;;;18.80;81.70;;;;;;4975932;28;20968;-71
2022/10/16 06:46:53;;;;;;;0.60;0.50;;;19.10;81.10;;;;;;4975834;28;20480;-72
2022/10/16 06:49:22;;;;;;;0.60;0.60;;;19.20;80.20;;;;;;4975469;28;20816;-73
2022/10/16 06:51:49;;;;;;;0.70;0.60;;;20.10;79.30;;;;;;4975536;28;20494;-73
2022/10/16 06:54:16;;;;;;;0.60;0.60;;;21.30;74.40;;;;;;5005191;23;20551;-74
2022/10/16 06:56:43;;;;;;;0.70;0.70;;;21.60;72.70;;;;;;4994291;28;20449;-77
2022/10/16 06:59:09;;;;;;;0.60;0.50;;;21.60;71.90;;;;;;4994171;28;20468;-77
2022/10/16 07:01:37;;;;;;;0.60;0.60;;;21.40;72.30;;;;;;4993874;28;20437;-76
2022/10/16 07:04:04;;;;;;;0.60;0.50;;;21.20;73.10;;;;;;4994286;28;20473;-76
2022/10/16 07:06:34;;;;;;;0.60;0.60;;;20.80;73.20;;;;;;4994142;28;20449;-76
2022/10/16 07:09:03;;;;;;;0.60;0.60;;;20.50;74.30;;;;;;4993989;28;20445;-77
2022/10/16 07:11:30;;;;;;;0.60;0.60;;;20.30;74.80;;;;;;4993951;28;20481;-77
2022/10/16 07:13:56;;;;;;;0.60;0.60;;;20.10;75.40;;;;;;4993514;28;20469;-77
2022/10/16 07:16:25;;;;;;;0.70;0.60;;;20.00;76.10;;;;;;4993852;28;20453;-77
2022/10/16 07:18:58;;;;;;;0.63;0.63;;;19.80;76.60;;;;;;4993796;28;20453;-77
2022/10/16 07:21:25;;;;;;;0.60;0.60;;;19.70;77.10;;;;;;4994466;28;20429;-76
2022/10/16 07:23:52;;;;;;;0.60;0.60;;;19.70;77.60;;;;;;4993652;28;20560;-76
2022/10/16 07:26:19;;;;;;;0.60;0.60;;;19.50;78.10;;;;;;4993996;28;20464;-76
2022/10/16 07:28:46;;;;;;;0.60;0.50;;;19.40;78.30;;;;;;4993401;28;20473;-78
2022/10/16 07:31:15;;;;;;;0.70;0.70;;;19.30;78.70;;;;;;4993531;28;20860;-78
2022/10/16 07:33:44;;;;;;;0.70;0.60;;;19.30;78.90;;;;;;4995063;28;20449;-78
2022/10/16 07:36:13;;;;;;;0.70;0.60;;;19.30;79.00;;;;;;4997552;28;20453;-79
2022/10/16 07:38:40;;;;;;;0.90;0.60;;;19.20;79.10;;;;;;4993845;28;20500;-78
2022/10/16 07:41:09;;;;;;;0.60;0.60;;;19.30;79.40;;;;;;4994541;28;20836;-78
2022/10/16 07:43:36;;;;;;;1.23;0.60;;;19.10;79.20;;;;;;4993730;28;20444;-79
2022/10/16 07:46:03;;;;;;;0.70;0.60;;;19.00;79.50;;;;;;4994073;28;20445;-78
2022/10/16 07:48:33;;;;;;;0.80;0.77;;;18.80;80.40;;;;;;4994351;28;20456;-78
2022/10/16 07:51:00;;;;;;;0.90;0.60;;;18.70;80.10;;;;;;4993370;28;20430;-78
2022/10/16 07:53:29;;;;;;;0.60;0.60;;;18.60;81.00;;;;;;4993408;28;20449;-79
2022/10/16 07:55:58;;;;;;;1.00;0.70;;;18.60;81.00;;;;;;4993680;28;20540;-79
2022/10/16 07:58:25;;;;;;;0.60;0.53;;;18.50;80.90;;;;;;4993706;28;20477;-78
2022/10/16 08:00:52;;;;;;;0.60;0.57;;;18.50;81.10;;;;;;4993407;28;20445;-78
2022/10/16 08:03:18;;;;;;;0.60;0.50;;;18.60;81.30;;;;;;4993180;28;20452;-78
2022/10/16 08:05:45;;;;;;;0.90;0.60;;;18.60;80.70;;;;;;4993517;28;20477;-78
2022/10/16 08:08:14;;;;;;;0.87;0.60;;;18.70;81.10;;;;;;4993523;28;20445;-78
2022/10/16 08:10:42;;;;;;;0.70;0.60;;;18.50;81.30;;;;;;4994295;28;20508;-78
2022/10/16 08:13:09;;;;;;;0.70;0.60;;;18.60;80.80;;;;;;4993789;28;21054;-78
2022/10/16 08:15:35;;;;;;;0.70;0.60;;;18.50;81.50;;;;;;4993194;28;20564;-79
2022/10/16 08:18:04;;;;;;;0.67;0.60;;;18.60;82.10;;;;;;4993231;28;20473;-78
2022/10/16 08:20:32;;;;;;;0.60;0.60;;;18.60;81.30;;;;;;4993492;28;20446;-78
2022/10/16 08:22:59;;;;;;;0.70;0.53;;;18.70;81.50;;;;;;4993448;28;20449;-78
2022/10/16 08:25:26;;;;;;;2.70;0.60;;;18.70;82.40;;;;;;4992856;28;20476;-77
2022/10/16 08:27:54;;;;;;;0.60;0.50;;;18.70;82.10;;;;;;4992931;28;20452;-77
2022/10/16 08:30:22;;;;;;;0.60;0.60;;;18.70;81.00;;;;;;4992842;28;20453;-77
2022/10/16 08:32:49;;;;;;;0.60;0.60;;;18.80;80.80;;;;;;4992793;28;20503;-77
2022/10/16 08:35:16;;;;;;;0.80;0.60;;;19.00;81.90;;;;;;4992700;28;20901;-77
2022/10/16 08:37:43;;;;;;;1.27;0.60;;;19.20;80.50;;;;;;4992366;28;20959;-77
2022/10/16 08:40:18;;;;;;;0.60;0.50;;;19.40;80.60;;;;;;4992418;28;20791;-77
2022/10/16 08:43:04;;;;;;;0.70;0.60;;;19.30;79.50;;;;;;4992737;28;20430;-77
2022/10/16 08:45:45;;;;;;;0.70;0.60;;;19.40;79.60;;;;;;4992863;28;20473;-76
2022/10/16 08:48:23;;;;;;;0.83;0.50;;;19.40;79.00;;;;;;4992832;28;20441;-77
2022/10/16 08:50:52;;;;;;;0.93;0.57;;;19.30;78.80;;;;;;4992772;28;20512;-77
2022/10/16 08:53:23;;;;;;;1.20;0.53;;;19.40;79.00;;;;;;4992381;28;20893;-78
2022/10/16 08:55:51;;;;;;;1.43;0.70;;;19.50;79.10;;;;;;4992660;28;20436;-77
2022/10/16 08:58:22;;;;;;;0.60;0.60;;;19.70;79.00;;;;;;4992580;28;20449;-77
2022/10/16 09:00:52;;;;;;;0.60;0.50;;;19.80;78.60;;;;;;4992467;28;20935;-77
2022/10/16 09:03:31;;;;;;;0.60;0.60;;;19.80;78.20;;;;;;4992583;28;20425;-76
2022/10/16 09:06:25;;;;;;;1.00;0.60;;;19.70;78.10;;;;;;4992547;28;20533;-77
2022/10/16 09:09:07;;;;;;;0.60;0.50;;;19.60;78.80;;;;;;4992552;28;20541;-77
2022/10/16 09:11:46;;;;;;;0.90;0.60;;;19.70;78.30;;;;;;4992650;28;20429;-77
2022/10/16 09:14:36;;;;;;;1.00;0.60;;;19.60;79.20;;;;;;4994969;28;20564;-77
2022/10/16 09:17:17;;;;;;;0.70;0.60;;;19.70;80.30;;;;;;4995774;28;20885;-77
2022/10/16 09:19:50;;;;;;;0.60;0.50;;;19.70;79.10;;;;;;4996066;28;20505;-77
2022/10/16 09:22:18;;;;;;;0.60;0.60;;;19.60;79.60;;;;;;4996059;28;20762;-77
2022/10/16 09:24:45;;;;;;;0.73;0.70;;;19.70;78.60;;;;;;4996009;28;20477;-77
2022/10/16 09:27:14;;;;;;;0.80;0.70;;;19.70;79.50;;;;;;4996045;28;20449;-77
2022/10/16 09:29:43;;;;;;;0.60;0.60;;;19.80;79.30;;;;;;4995940;28;20481;-78
2022/10/16 09:32:14;;;;;;;0.63;0.63;;;19.80;78.80;;;;;;4995731;28;20492;-77
2022/10/16 09:34:44;;;;;;;0.70;0.70;;;19.90;79.90;;;;;;4995830;28;20483;-77
2022/10/16 09:37:15;;;;;;;0.67;0.67;;;20.00;77.80;;;;;;4996053;28;20437;-78
2022/10/16 09:39:46;;;;;;;0.77;0.60;;;20.20;79.80;;;;;;4995855;28;20453;-78
2022/10/16 09:42:16;;;;;;;0.80;0.70;;;20.30;78.00;;;;;;4996612;28;20476;-77
2022/10/16 09:44:49;;;;;;;0.80;0.70;;;20.40;77.50;;;;;;4995666;28;20465;-77
2022/10/16 09:47:19;;;;;;;0.80;0.60;;;20.40;77.30;;;;;;4995630;28;20520;-77
2022/10/16 09:49:54;;;;;;;0.80;0.60;;;20.70;76.60;;;;;;4995918;28;20437;-77
2022/10/16 09:52:23;;;;;;;0.60;0.60;;;21.10;77.90;;;;;;4995106;28;21103;-77
2022/10/16 09:54:52;;;;;;;0.60;0.60;;;21.30;72.10;;;;;;4995322;28;20972;-77
2022/10/16 09:57:19;;;;;;;0.73;0.70;;;21.40;74.20;;;;;;4995243;28;20941;-77
2022/10/16 09:59:51;;;;;;;0.83;0.70;;;21.60;73.10;;;;;;4995153;28;20917;-77
2022/10/16 10:02:21;;;;;;;0.67;0.60;;;21.80;72.80;;;;;;4995820;28;20445;-77
2022/10/16 10:04:53;;;;;;;0.93;0.60;;;21.70;70.00;;;;;;4996092;28;20473;-78
2022/10/16 10:07:25;;;;;;;1.10;0.60;;;21.80;71.80;;;;;;4995507;28;20441;-77
2022/10/16 10:09:52;;;;;;;0.77;0.60;;;21.80;70.60;;;;;;4995374;28;20442;-77
2022/10/16 10:12:21;;;;;;;0.70;0.60;;;21.90;71.10;;;;;;4995255;28;20485;-77
2022/10/16 10:14:51;;;;;;;0.60;0.60;;;21.80;70.40;;;;;;4995238;28;20489;-78
2022/10/16 10:17:20;;;;;;;0.67;0.60;;;21.90;70.40;;;;;;4995704;28;20441;-77
2022/10/16 10:19:53;;;;;;;0.60;0.50;;;21.90;72.20;;;;;;4995109;28;20468;-77
2022/10/16 10:22:32;;;;;;;0.70;0.60;;;22.00;68.80;;;;;;4995514;28;20438;-77
2022/10/16 10:25:17;;;;;;;0.63;0.63;;;22.00;70.10;;;;;;4993915;28;20469;-77
2022/10/16 10:27:58;;;;;;;0.60;0.50;;;21.90;69.10;;;;;;4995724;28;20437;-77
2022/10/16 10:30:33;;;;;;;0.70;0.70;;;22.10;69.60;;;;;;4995394;28;20437;-77
2022/10/16 10:33:12;;;;;;;0.70;0.60;;;22.30;68.90;;;;;;4995819;28;20530;-77
2022/10/16 10:35:50;;;;;;;0.60;0.60;;;22.40;67.40;;;;;;4995371;28;20481;-77
2022/10/16 10:38:28;;;;;;;0.70;0.60;;;22.30;68.30;;;;;;4995993;28;20799;-77
2022/10/16 10:41:09;;;;;;;0.60;0.57;;;22.20;67.90;;;;;;4994469;28;20441;-77
2022/10/16 10:43:49;;;;;;;0.80;0.50;;;22.20;67.40;;;;;;4994790;28;20504;-79
2022/10/16 10:46:29;;;;;;;1.27;0.60;;;22.40;68.30;;;;;;4996301;28;20433;-77
2022/10/16 10:49:11;;;;;;;1.00;0.60;;;22.30;69.20;;;;;;4994402;28;20812;-77
2022/10/16 10:51:45;;;;;;;0.80;0.60;;;22.40;68.80;;;;;;4994615;28;20437;-77
2022/10/16 10:54:20;;;;;;;0.60;0.60;;;22.70;69.00;;;;;;4993914;28;20872;-78
2022/10/16 10:56:57;;;;;;;0.70;0.70;;;22.70;65.40;;;;;;4994442;28;20460;-77
2022/10/16 10:59:52;;;;;;;0.60;0.50;;;22.70;65.10;;;;;;4993995;28;20905;-77
2022/10/16 11:02:26;;;;;;;0.70;0.70;;;22.70;65.50;;;;;;4994271;28;20468;-77
2022/10/16 11:05:23;;;;;;;0.60;0.60;;;22.90;66.70;;;;;;4994111;28;20468;-78
2022/10/16 11:07:54;;;;;;;0.80;0.80;;;22.90;65.40;;;;;;4994357;28;20511;-79
2022/10/16 11:10:25;;;;;;;0.70;0.60;;;22.90;67.00;;;;;;4994344;28;20488;-77
2022/10/16 11:12:56;;;;;;;0.90;0.60;;;23.10;66.60;;;;;;4993795;28;20473;-77
2022/10/16 11:15:29;;;;;;;0.60;0.60;;;23.10;65.40;;;;;;4994011;28;20469;-77
2022/10/16 11:18:04;;;;;;;0.60;0.60;;;23.20;66.30;;;;;;4994327;28;20441;-77
2022/10/16 11:20:34;;;;;;;0.60;0.60;;;23.30;65.10;;;;;;4994065;28;20428;-77
2022/10/16 11:23:11;;;;;;;0.60;0.60;;;23.20;65.20;;;;;;4993751;28;20445;-76
2022/10/16 11:25:40;;;;;;;0.60;0.60;;;23.10;65.90;;;;;;4993655;28;20465;-77
2022/10/16 11:28:12;;;;;;;0.80;0.60;;;23.10;66.70;;;;;;4993849;28;20472;-77
2022/10/16 11:30:44;;;;;;;0.60;0.60;;;23.30;67.80;;;;;;4993851;28;20508;-77
2022/10/16 11:33:26;;;;;;;0.70;0.60;;;23.40;65.90;;;;;;4993664;28;20469;-77
2022/10/16 11:35:56;;;;;;;0.70;0.60;;;23.40;65.20;;;;;;4994019;28;20442;-77
2022/10/16 11:38:30;;;;;;;1.60;0.57;;;23.50;65.00;;;;;;4993651;28;20448;-77
2022/10/16 11:41:02;;;;;;;0.67;0.63;;;23.70;66.40;;;;;;4993835;28;20434;-77
2022/10/16 11:43:35;;;;;;;0.93;0.60;;;24.00;66.20;;;;;;4994349;28;20421;-78
2022/10/16 11:46:09;;;;;;;0.60;0.60;;;24.20;65.70;;;;;;4993788;28;20434;-76
2022/10/16 11:48:46;;;;;;;0.60;0.57;;;24.50;64.80;;;;;;4994276;28;20444;-75
2022/10/16 11:51:22;;;;;;;1.03;0.70;;;24.60;62.20;;;;;;4995031;28;20444;-74
2022/10/16 11:53:56;;;;;;;0.80;0.60;;;24.60;61.80;;;;;;4995046;28;20488;-74
2022/10/16 11:56:23;;;;;;;1.17;0.60;;;24.60;62.40;;;;;;4994105;28;20429;-71
2022/10/16 11:58:58;;;;;;;0.60;0.53;;;24.80;63.00;;;;;;4994215;28;20452;-73
2022/10/16 12:01:32;;;;;;;0.70;0.60;;;24.90;60.00;;;;;;4994701;28;20829;-71
2022/10/16 12:04:19;;;;;;;0.70;0.70;;;25.10;60.30;;;;;;4993802;28;20464;-72
2022/10/16 12:06:50;;;;;;;1.70;0.60;;;25.30;62.00;;;;;;4993432;28;20456;-76
2022/10/16 12:09:23;;;;;;;0.60;0.50;;;25.70;61.10;;;;;;4993561;28;21074;-73
2022/10/16 12:11:50;;;;;;;0.60;0.60;;;25.90;58.60;;;;;;4993870;28;20551;-73
2022/10/16 12:14:36;;;;;;;0.60;0.60;;;26.10;58.10;;;;;;4994419;28;20488;-71
2022/10/16 12:17:06;;;;;;;0.70;0.60;;;26.40;58.30;;;;;;4990019;28;20557;-72
2022/10/16 12:19:34;;;;;;;0.60;0.60;;;26.70;57.90;;;;;;4995213;28;20462;-71
2022/10/16 12:22:03;;;;;;;1.00;0.60;;;27.00;58.80;;;;;;4994806;28;20452;-73
2022/10/16 12:24:38;;;;;;;0.60;0.60;;;27.40;58.70;;;;;;4993186;28;20469;-73
2022/10/16 12:27:07;;;;;;;0.70;0.60;;;27.70;57.30;;;;;;4993521;28;20538;-75
2022/10/16 12:29:36;;;;;;;0.60;0.53;;;27.90;57.70;;;;;;4993100;28;20449;-74
2022/10/16 12:32:06;;;;;;;0.60;0.60;;;27.90;54.20;;;;;;4992997;28;20449;-72
2022/10/16 12:34:41;;;;;;;0.63;0.63;;;27.60;54.50;;;;;;4992691;28;20490;-69
2022/10/16 12:37:15;;;;;;;0.80;0.60;;;27.60;55.10;;;;;;4993200;28;20437;-69
2022/10/16 12:39:42;;;;;;;0.77;0.53;;;27.60;57.00;;;;;;4993155;28;20536;-69
2022/10/16 12:42:23;;;;;;;0.70;0.70;;;27.60;55.70;;;;;;4993128;28;20456;-69
2022/10/16 12:44:50;;;;;;;0.60;0.50;;;27.70;55.80;;;;;;4993093;28;20497;-69
2022/10/16 12:47:24;;;;;;;0.60;0.50;;;27.80;55.70;;;;;;4993362;28;20452;-70
2022/10/16 12:49:54;;;;;;;0.60;0.50;;;28.10;53.80;;;;;;4996863;28;20455;-70
2022/10/16 12:52:29;;;;;;;0.60;0.60;;;27.90;54.80;;;;;;4997271;28;20801;-70
2022/10/16 12:55:00;;;;;;;0.60;0.60;;;27.70;54.60;;;;;;5012469;23;20501;-67
2022/10/16 12:57:51;;;;;;;0.60;0.60;;;27.40;56.10;;;;;;4978130;28;20845;-70
2022/10/16 13:00:26;;;;;;;0.90;0.60;;;27.20;56.40;;;;;;4977899;28;20437;-68
2022/10/16 13:03:36;;;;;;;0.60;0.60;;;27.00;55.60;;;;;;4978315;28;20430;-68
2022/10/16 13:06:20;;;;;;;0.70;0.60;;;26.30;57.00;;;;;;4977782;28;20845;-69
2022/10/16 13:09:15;;;;;;;0.67;0.67;;;26.00;59.00;;;;;;4978202;28;20431;-71
2022/10/16 13:11:57;;;;;;;0.60;0.50;;;26.10;58.00;;;;;;4978925;28;20430;-71
2022/10/16 13:14:52;;;;;;;0.70;0.60;;;26.10;57.10;;;;;;4977885;28;20494;-71
2022/10/16 13:17:27;;;;;;;0.77;0.60;;;26.20;57.30;;;;;;4977911;28;20446;-70
2022/10/16 13:20:02;;;;;;;1.00;0.60;;;26.40;58.60;;;;;;4977855;28;20438;-70
2022/10/16 13:22:35;;;;;;;0.60;0.60;;;26.60;56.70;;;;;;4977981;28;20422;-68
2022/10/16 13:25:20;;;;;;;0.60;0.60;;;26.60;56.10;;;;;;4977793;28;20473;-69
2022/10/16 13:27:54;;;;;;;0.60;0.50;;;26.40;57.70;;;;;;4978423;28;20446;-68
2022/10/16 13:30:25;;;;;;;1.17;0.70;;;26.60;57.40;;;;;;4977397;28;20941;-69
2022/10/16 13:32:59;;;;;;;1.00;0.60;;;26.90;57.50;;;;;;4977589;28;20437;-68
2022/10/16 13:35:29;;;;;;;0.60;0.50;;;27.20;57.10;;;;;;4976990;28;20473;-69
2022/10/16 13:38:13;;;;;;;0.90;0.60;;;27.80;56.70;;;;;;4977196;28;20494;-71
2022/10/16 13:40:54;;;;;;;0.70;0.60;;;28.20;54.40;;;;;;4977273;28;20466;-71
2022/10/16 13:43:24;;;;;;;0.60;0.50;;;28.40;53.70;;;;;;4977234;28;20434;-71
2022/10/16 13:45:59;;;;;;;0.80;0.60;;;28.70;52.40;;;;;;4977123;28;20474;-72
2022/10/16 13:48:26;;;;;;;0.60;0.60;;;29.00;52.10;;;;;;4977061;28;20430;-72
2022/10/16 13:51:17;;;;;;;0.90;0.60;;;29.20;52.90;;;;;;4977032;28;20451;-71
2022/10/16 13:53:46;;;;;;;0.60;0.50;;;29.00;52.20;;;;;;4957883;28;20489;-71
2022/10/16 13:56:15;;;;;;;0.60;0.53;;;28.90;52.70;;;;;;4976775;28;20478;-71
2022/10/16 13:58:42;;;;;;;0.63;0.50;;;28.70;53.00;;;;;;4976632;28;20453;-71
2022/10/16 14:01:18;;;;;;;0.60;0.50;;;28.40;53.90;;;;;;4976838;28;20446;-71
2022/10/16 14:03:46;;;;;;;0.60;0.60;;;27.90;54.50;;;;;;4977010;28;20793;-72
2022/10/16 14:06:17;;;;;;;0.60;0.60;;;27.60;54.90;;;;;;4976837;28;20493;-72
2022/10/16 14:08:49;;;;;;;0.60;0.60;;;27.30;55.90;;;;;;4976728;28;20434;-71
2022/10/16 14:11:23;;;;;;;0.70;0.60;;;27.10;56.60;;;;;;4976668;28;20443;-71
2022/10/16 14:13:51;;;;;;;0.60;0.60;;;26.90;57.10;;;;;;4976626;28;20469;-71
2022/10/16 14:16:21;;;;;;;0.73;0.60;;;26.70;57.60;;;;;;4976605;28;20454;-71
2022/10/16 14:18:57;;;;;;;0.60;0.60;;;26.60;57.80;;;;;;4976538;28;20438;-71
2022/10/16 14:21:24;;;;;;;0.60;0.60;;;26.20;58.40;;;;;;4976542;28;20516;-72
2022/10/16 14:23:52;;;;;;;0.60;0.50;;;26.10;58.60;;;;;;4976380;28;20453;-71
2022/10/16 14:26:22;;;;;;;1.00;0.70;;;25.90;58.70;;;;;;4976109;28;20457;-71
2022/10/16 14:29:01;;;;;;;0.60;0.60;;;25.90;59.40;;;;;;4976305;28;20453;-71
2022/10/16 14:31:31;;;;;;;0.70;0.60;;;25.80;59.70;;;;;;4976349;28;20477;-71
2022/10/16 14:33:58;;;;;;;0.60;0.60;;;25.80;60.40;;;;;;4959266;28;20475;-72
2022/10/16 14:36:26;;;;;;;0.70;0.60;;;25.80;60.20;;;;;;4976188;28;20442;-70
2022/10/16 14:39:04;;;;;;;1.23;0.70;;;25.80;61.10;;;;;;4976048;28;20525;-71
2022/10/16 14:41:33;;;;;;;0.60;0.60;;;26.10;60.60;;;;;;4976365;28;20443;-71
2022/10/16 14:44:04;;;;;;;1.47;0.60;;;26.60;58.70;;;;;;4976007;28;20449;-71
2022/10/16 14:46:35;;;;;;;0.60;0.60;;;27.30;57.40;;;;;;4976058;28;20437;-71
2022/10/16 14:49:05;;;;;;;0.60;0.60;;;27.80;55.70;;;;;;4975954;28;20435;-71
2022/10/16 14:51:32;;;;;;;0.70;0.70;;;28.30;55.20;;;;;;4976483;28;20455;-72
2022/10/16 14:53:59;;;;;;;0.60;0.60;;;28.60;54.40;;;;;;4975191;28;20482;-71
2022/10/16 14:56:31;;;;;;;0.60;0.60;;;28.90;53.80;;;;;;4975502;28;20434;-71
2022/10/16 14:58:58;;;;;;;0.60;0.57;;;29.00;53.70;;;;;;4975797;28;20498;-71
2022/10/16 15:01:25;;;;;;;0.60;0.60;;;29.40;52.90;;;;;;4976314;28;20453;-71
2022/10/16 15:03:54;;;;;;;0.60;0.60;;;29.90;52.10;;;;;;4975603;28;20533;-71
2022/10/16 15:06:21;;;;;;;0.70;0.60;;;29.90;52.00;;;;;;4975711;28;20462;-71
2022/10/16 15:08:48;;;;;;;0.60;0.60;;;29.70;51.90;;;;;;4975579;28;20450;-71
2022/10/16 15:11:17;;;;;;;0.70;0.60;;;29.00;52.90;;;;;;4974718;28;20526;-70
2022/10/16 15:13:46;;;;;;;0.60;0.60;;;28.60;53.10;;;;;;4975198;28;20478;-71
2022/10/16 15:16:14;;;;;;;0.60;0.60;;;28.20;53.70;;;;;;4975386;28;20524;-72
2022/10/16 15:18:41;;;;;;;0.60;0.57;;;27.80;54.10;;;;;;4975395;28;20489;-71
2022/10/16 15:21:08;;;;;;;0.60;0.60;;;27.50;55.00;;;;;;4975061;28;20513;-71
2022/10/16 15:23:35;;;;;;;0.60;0.50;;;27.30;55.70;;;;;;4975368;28;20504;-71
2022/10/16 15:26:02;;;;;;;0.70;0.60;;;27.00;56.10;;;;;;4974958;28;20470;-71
2022/10/16 15:28:28;;;;;;;0.80;0.60;;;26.80;56.70;;;;;;4974839;28;20935;-70
2022/10/16 15:30:57;;;;;;;0.70;0.60;;;26.60;57.20;;;;;;4975180;28;20457;-71
2022/10/16 15:33:27;;;;;;;0.60;0.60;;;26.40;57.70;;;;;;4975108;28;20512;-71
2022/10/16 15:35:54;;;;;;;0.67;0.60;;;26.30;58.40;;;;;;4975037;28;20474;-71
2022/10/16 15:38:22;;;;;;;0.70;0.63;;;26.10;59.00;;;;;;4975011;28;20872;-71
2022/10/16 15:40:50;;;;;;;1.33;0.60;;;26.00;59.90;;;;;;4974667;28;20942;-70
2022/10/16 15:43:17;;;;;;;0.60;0.60;;;25.90;60.00;;;;;;4974939;28;20995;-70
2022/10/16 15:45:44;;;;;;;0.60;0.60;;;25.80;61.30;;;;;;4974835;28;20525;-71
2022/10/16 15:48:14;;;;;;;0.60;0.60;;;25.70;62.10;;;;;;4974616;28;20951;-70
2022/10/16 15:50:42;;;;;;;0.60;0.60;;;25.50;63.30;;;;;;4974648;28;20930;-70
2022/10/16 15:53:09;;;;;;;0.60;0.60;;;25.40;64.00;;;;;;4974869;28;20506;-71
2022/10/16 15:55:37;;;;;;;0.70;0.60;;;25.30;64.70;;;;;;4974342;28;20879;-71
2022/10/16 15:58:04;;;;;;;1.00;0.70;;;25.10;65.30;;;;;;4974775;28;20450;-70
2022/10/16 16:00:31;;;;;;;0.60;0.60;;;25.00;66.00;;;;;;4974741;28;20516;-70
2022/10/16 16:02:57;;;;;;;0.80;0.70;;;24.90;66.70;;;;;;4974775;28;20451;-69
2022/10/16 16:05:27;;;;;;;0.70;0.70;;;24.70;67.20;;;;;;4974650;28;20462;-70
2022/10/16 16:07:54;;;;;;;1.10;0.70;;;24.50;68.20;;;;;;4974958;28;20517;-71
2022/10/16 16:10:21;;;;;;;0.80;0.80;;;24.40;68.80;;;;;;4974667;28;20446;-70
2022/10/16 16:12:51;;;;;;;1.27;0.93;;;24.30;69.10;;;;;;4974651;28;20488;-69
2022/10/16 16:15:18;;;;;;;0.97;0.70;;;24.10;69.60;;;;;;4974499;28;20513;-70
2022/10/16 16:17:45;;;;;;;0.80;0.70;;;24.00;70.10;;;;;;4974571;28;20450;-70
2022/10/16 16:20:12;;;;;;;0.90;0.80;;;23.90;70.60;;;;;;4974524;28;20450;-70
2022/10/16 16:22:40;;;;;;;0.93;0.80;;;23.70;70.70;;;;;;4976298;28;20473;-70
2022/10/16 16:25:07;;;;;;;0.80;0.70;;;23.60;70.90;;;;;;4978496;28;20473;-70
2022/10/16 16:27:34;;;;;;;0.60;0.60;;;23.50;71.20;;;;;;4978182;28;20854;-70
2022/10/16 16:30:03;;;;;;;0.70;0.70;;;23.30;71.50;;;;;;4978486;28;20446;-71
2022/10/16 16:32:30;;;;;;;0.90;0.70;;;23.10;71.90;;;;;;4978436;28;20505;-71
2022/10/16 16:34:56;;;;;;;0.70;0.60;;;23.00;72.20;;;;;;4978239;28;20493;-71
2022/10/16 16:37:23;;;;;;;0.70;0.63;;;22.90;72.40;;;;;;4978354;28;20453;-70
2022/10/16 16:39:51;;;;;;;2.00;0.77;;;22.70;72.20;;;;;;4977974;28;20953;-70
2022/10/16 16:42:18;;;;;;;0.93;0.90;;;22.60;72.90;;;;;;4978227;28;20477;-70
2022/10/16 16:44:45;;;;;;;0.70;0.70;;;22.50;73.10;;;;;;4978144;28;20470;-71
2022/10/16 16:47:12;;;;;;;0.60;0.60;;;22.50;73.20;;;;;;4978197;28;20446;-71
2022/10/16 16:49:40;;;;;;;0.97;0.70;;;22.40;73.40;;;;;;4977814;28;20934;-70